Minqing, China
Current Conditions -  °F | °C
As of 10:00 AM on Monday 26 Jan 2015 (Local Time) from ZSFZ Reporting Station
Haze Haze  
Wind Chill: 59°   Ceiling: 2700
Heat Index: 59°   Visibility: 2.1mi
Dew Point: 52°   Wind: 16mph
Humidity: 77%   Direction: 50°NE
Pressure: 30.18"   Gusts: NA
Location:  26.22°N, 118.85°E
Report Text: ZSFZ 260200Z 05007MPS 3500 BR SCT018 OVC027 15/11 Q1022 NOSIG
Loading
Personal Weather Stations






























Interactive Weather Map New forecast layout! Learn more

10-Day Weather Forecast

Advertisements
Track Severe Weather on mobile